Time;durP1;ratioP1;P1;durP2;ratioP2;P2;SDS_P1;SDS_P2;PMS_P1;PMS_P2;Temp;Humidity;BMP_temperature;BMP_pressure;BME280_temperature;BME280_humidity;BME280_pressure;Samples;Min_cycle;Max_cycle;Signal;HPM_P1;HPM_P2
2022/10/24 00:02:07;;;;;;;7.32;2.47;;;15.50;99.90;;;;;;5045446;28;20143;-76
2022/10/24 00:04:38;;;;;;;7.57;2.63;;;15.50;99.90;;;;;;5043890;28;20132;-75
2022/10/24 00:07:06;;;;;;;7.88;2.33;;;15.50;99.90;;;;;;5062243;28;20040;-76
2022/10/24 00:09:33;;;;;;;5.65;2.00;;;15.40;99.90;;;;;;5061006;28;20076;-76
2022/10/24 00:11:58;;;;;;;5.63;2.55;;;15.50;99.90;;;;;;5061937;28;20041;-76
2022/10/24 00:14:24;;;;;;;5.80;2.22;;;15.40;99.90;;;;;;5045908;28;20124;-76
2022/10/24 00:16:50;;;;;;;8.35;2.85;;;15.50;99.90;;;;;;5041515;28;20074;-76
2022/10/24 00:19:16;;;;;;;5.47;2.17;;;15.40;99.90;;;;;;5063315;28;20044;-75
2022/10/24 00:21:41;;;;;;;6.38;2.58;;;15.40;99.90;;;;;;5062739;28;20461;-76
2022/10/24 00:24:08;;;;;;;6.82;2.40;;;15.40;99.90;;;;;;5043079;28;20059;-76
2022/10/24 00:26:34;;;;;;;6.93;2.20;;;15.30;99.90;;;;;;5060947;28;20126;-75
2022/10/24 00:29:00;;;;;;;7.35;2.30;;;15.30;99.90;;;;;;5046580;28;20555;-75
2022/10/24 00:31:26;;;;;;;8.18;2.58;;;15.30;99.90;;;;;;5036532;28;20049;-74
2022/10/24 00:33:52;;;;;;;7.97;2.13;;;15.30;99.90;;;;;;5040920;28;20524;-75
2022/10/24 00:36:20;;;;;;;5.78;2.50;;;15.30;99.90;;;;;;5061809;28;20068;-77
2022/10/24 00:38:46;;;;;;;6.95;2.40;;;15.30;99.90;;;;;;5062816;28;20082;-75
2022/10/24 00:41:24;;;;;;;9.77;3.05;;;15.20;99.90;;;;;;5063776;28;20124;-75
2022/10/24 00:44:10;;;;;;;4.82;1.90;;;15.30;99.90;;;;;;5061168;28;20110;-74
2022/10/24 00:46:36;;;;;;;6.15;2.30;;;15.20;99.90;;;;;;5060471;28;20049;-74
2022/10/24 00:49:02;;;;;;;6.40;2.25;;;15.20;99.90;;;;;;5065152;28;20055;-74
2022/10/24 00:51:32;;;;;;;7.28;2.28;;;15.10;99.90;;;;;;5045423;28;20048;-77
2022/10/24 00:54:09;;;;;;;8.13;2.72;;;15.20;99.90;;;;;;5042871;28;20715;-74
2022/10/24 00:56:39;;;;;;;6.93;2.78;;;15.20;99.90;;;;;;5039282;28;20262;-75
2022/10/24 00:59:08;;;;;;;8.95;2.67;;;15.20;99.90;;;;;;5064594;28;20080;-76
2022/10/24 01:01:34;;;;;;;12.27;3.10;;;15.10;99.90;;;;;;5039292;28;20091;-76
2022/10/24 01:04:00;;;;;;;8.98;3.10;;;15.10;99.90;;;;;;5035143;28;20037;-75
2022/10/24 01:06:44;;;;;;;10.33;2.70;;;15.10;99.90;;;;;;5058716;28;20045;-76
2022/10/24 01:09:45;;;;;;;7.60;3.28;;;15.10;99.90;;;;;;5053129;28;20040;-76
2022/10/24 01:12:35;;;;;;;10.00;3.10;;;15.10;99.90;;;;;;5036475;28;20083;-76
2022/10/24 01:15:20;;;;;;;9.27;3.17;;;15.20;99.90;;;;;;5059515;28;20063;-76
2022/10/24 01:18:09;;;;;;;9.38;3.63;;;15.20;99.90;;;;;;5064543;28;20487;-76
2022/10/24 01:21:13;;;;;;;11.10;3.35;;;15.20;99.90;;;;;;5044403;28;20068;-78
2022/10/24 01:23:51;;;;;;;10.02;3.47;;;15.20;99.90;;;;;;5041590;28;20048;-78
2022/10/24 01:26:34;;;;;;;7.15;3.30;;;15.30;99.90;;;;;;5067954;28;20085;-77
2022/10/24 01:29:15;;;;;;;7.00;3.40;;;15.30;99.90;;;;;;5044621;28;20048;-77
2022/10/24 01:31:58;;;;;;;10.27;3.78;;;15.30;99.90;;;;;;5049874;28;20048;-78
2022/10/24 01:34:23;;;;;;;12.75;3.72;;;15.30;99.90;;;;;;5062945;28;20045;-78
2022/10/24 01:37:14;;;;;;;7.85;3.35;;;15.20;99.90;;;;;;5065040;28;20131;-75
2022/10/24 01:39:55;;;;;;;7.47;3.35;;;15.20;99.90;;;;;;5066445;28;20612;-78
2022/10/24 01:42:23;;;;;;;8.43;3.72;;;15.20;99.90;;;;;;5068526;28;20072;-77
2022/10/24 01:44:53;;;;;;;9.50;3.50;;;15.20;99.90;;;;;;5064379;28;20048;-78
2022/10/24 01:47:23;;;;;;;10.15;3.70;;;15.10;99.90;;;;;;5061111;28;20077;-78
2022/10/24 01:49:55;;;;;;;8.50;3.92;;;15.10;99.90;;;;;;5059947;28;20044;-77
2022/10/24 01:52:23;;;;;;;9.02;4.28;;;15.10;99.90;;;;;;5065253;28;20044;-76
2022/10/24 01:54:50;;;;;;;9.40;3.80;;;15.10;99.90;;;;;;5066081;28;20052;-76
2022/10/24 01:57:16;;;;;;;11.40;4.10;;;15.00;99.90;;;;;;5063172;28;20151;-76
2022/10/24 01:59:47;;;;;;;9.68;3.67;;;15.00;99.90;;;;;;5043653;28;20128;-77
2022/10/24 02:02:25;;;;;;;12.43;3.95;;;15.00;99.90;;;;;;5061633;28;20051;-76
2022/10/24 02:05:06;;;;;;;10.60;3.83;;;14.90;99.90;;;;;;5047464;28;20044;-76
2022/10/24 02:07:35;;;;;;;9.45;3.83;;;14.90;99.90;;;;;;5066964;28;20123;-76
2022/10/24 02:10:13;;;;;;;12.30;3.95;;;15.00;99.90;;;;;;5044026;28;20053;-76
2022/10/24 02:12:42;;;;;;;8.88;3.75;;;14.90;99.90;;;;;;5047272;28;20049;-76
2022/10/24 02:15:13;;;;;;;9.98;3.85;;;14.90;99.90;;;;;;5066387;28;20053;-75
2022/10/24 02:17:39;;;;;;;10.32;3.70;;;14.90;99.90;;;;;;5063007;28;20060;-77
2022/10/24 02:20:06;;;;;;;9.43;3.60;;;14.90;99.90;;;;;;5062019;28;20171;-75
2022/10/24 02:22:53;;;;;;;11.15;3.33;;;14.90;99.90;;;;;;5067094;28;20127;-76
2022/10/24 02:25:36;;;;;;;9.55;3.67;;;14.90;99.90;;;;;;5057788;28;20097;-76
2022/10/24 02:28:05;;;;;;;13.75;4.10;;;14.80;99.90;;;;;;5067117;28;20048;-75
2022/10/24 02:30:36;;;;;;;12.38;3.95;;;14.80;99.90;;;;;;5061284;28;20083;-74
2022/10/24 02:33:01;;;;;;;13.13;4.03;;;14.80;99.90;;;;;;5032895;28;20651;-77
2022/10/24 02:35:34;;;;;;;9.70;3.47;;;14.90;99.90;;;;;;5047078;28;20036;-77
2022/10/24 02:38:27;;;;;;;11.20;3.67;;;14.90;99.90;;;;;;5061327;28;20075;-78
2022/10/24 02:40:54;;;;;;;8.80;3.33;;;14.90;99.90;;;;;;5066936;28;20476;-77
2022/10/24 02:43:21;;;;;;;9.65;3.08;;;14.80;99.90;;;;;;5049798;28;20132;-77
2022/10/24 02:45:49;;;;;;;16.20;3.63;;;14.80;99.90;;;;;;5062364;28;20120;-78
2022/10/24 02:48:19;;;;;;;10.93;3.55;;;14.80;99.90;;;;;;5067900;28;20411;-77
2022/10/24 02:50:45;;;;;;;13.57;3.38;;;14.80;99.90;;;;;;5063236;28;20485;-77
2022/10/24 02:53:18;;;;;;;12.82;3.47;;;14.80;99.90;;;;;;5049458;28;20048;-77
2022/10/24 02:55:43;;;;;;;9.18;3.60;;;14.80;99.90;;;;;;5060665;28;20064;-77
2022/10/24 02:58:09;;;;;;;8.38;3.55;;;14.80;99.90;;;;;;5049392;28;20064;-77
2022/10/24 03:00:35;;;;;;;12.18;3.83;;;14.80;99.90;;;;;;5041938;28;20036;-77
2022/10/24 03:03:00;;;;;;;10.48;3.45;;;14.80;99.90;;;;;;5044234;28;20051;-77
2022/10/24 03:05:26;;;;;;;10.82;3.85;;;14.80;99.90;;;;;;5063124;28;20076;-77
2022/10/24 03:07:51;;;;;;;10.00;4.00;;;14.80;99.90;;;;;;5068229;28;20113;-77
2022/10/24 03:10:17;;;;;;;9.38;3.60;;;14.70;99.90;;;;;;5047681;28;20472;-77
2022/10/24 03:12:43;;;;;;;10.60;3.65;;;14.70;99.90;;;;;;5062221;28;20055;-77
2022/10/24 03:15:09;;;;;;;10.02;3.50;;;14.70;99.90;;;;;;5043858;28;20113;-77
2022/10/24 03:17:34;;;;;;;11.50;3.83;;;14.70;99.90;;;;;;5047055;28;20075;-77
2022/10/24 03:20:00;;;;;;;10.55;3.58;;;14.70;99.90;;;;;;5067424;28;20523;-77
2022/10/24 03:22:26;;;;;;;14.82;3.45;;;14.70;99.90;;;;;;5063459;28;20040;-77
2022/10/24 03:24:51;;;;;;;9.52;3.53;;;14.80;99.90;;;;;;5047885;28;20084;-77
2022/10/24 03:27:17;;;;;;;9.30;3.50;;;14.70;99.90;;;;;;5046007;28;20135;-77
2022/10/24 03:29:43;;;;;;;9.50;3.40;;;14.80;99.90;;;;;;5063280;28;20036;-75
2022/10/24 03:32:09;;;;;;;10.20;3.80;;;14.80;99.90;;;;;;5041814;28;20415;-77
2022/10/24 03:34:34;;;;;;;9.95;4.40;;;14.80;99.90;;;;;;5044496;28;20047;-78
2022/10/24 03:37:00;;;;;;;7.25;3.35;;;14.80;99.90;;;;;;5048014;28;20048;-78
2022/10/24 03:39:26;;;;;;;8.25;3.13;;;14.80;99.90;;;;;;5047179;28;20059;-77
2022/10/24 03:41:51;;;;;;;11.43;3.78;;;14.90;99.90;;;;;;5059402;28;20071;-77
2022/10/24 03:44:17;;;;;;;12.88;3.80;;;14.90;99.90;;;;;;5061966;28;20143;-76
2022/10/24 03:46:42;;;;;;;14.27;3.22;;;14.90;99.90;;;;;;5045329;28;20126;-76
2022/10/24 03:49:08;;;;;;;8.35;3.22;;;15.00;99.90;;;;;;5060738;28;20471;-77
2022/10/24 03:51:34;;;;;;;11.93;3.33;;;15.00;99.90;;;;;;5045561;28;20044;-77
2022/10/24 03:53:59;;;;;;;9.27;3.00;;;15.10;99.90;;;;;;5045554;28;20048;-76
2022/10/24 03:56:25;;;;;;;8.55;3.10;;;15.10;99.90;;;;;;5061651;28;20040;-76
2022/10/24 03:58:50;;;;;;;9.40;2.95;;;15.10;99.90;;;;;;5062388;28;20047;-77
2022/10/24 04:01:17;;;;;;;14.50;3.28;;;15.10;99.90;;;;;;5062981;28;20076;-76
2022/10/24 04:03:44;;;;;;;7.93;2.80;;;15.20;99.90;;;;;;5043155;28;20045;-77
2022/10/24 04:06:10;;;;;;;8.90;2.25;;;15.20;99.90;;;;;;5063680;28;20036;-76
2022/10/24 04:08:35;;;;;;;7.50;2.72;;;15.30;99.90;;;;;;5063900;28;20068;-78
2022/10/24 04:11:01;;;;;;;7.90;2.60;;;15.30;99.90;;;;;;5060227;28;20071;-76
2022/10/24 04:13:26;;;;;;;7.43;2.50;;;15.30;99.90;;;;;;5063289;28;20068;-76
2022/10/24 04:15:52;;;;;;;7.15;2.35;;;15.30;99.90;;;;;;5028934;28;20449;-75
2022/10/24 04:18:18;;;;;;;7.25;2.88;;;15.30;99.90;;;;;;5037862;28;20051;-76
2022/10/24 04:20:43;;;;;;;9.95;2.50;;;15.30;99.90;;;;;;5037915;28;20048;-77
2022/10/24 04:23:09;;;;;;;11.20;2.33;;;15.30;99.90;;;;;;5043626;28;20033;-77
2022/10/24 04:25:35;;;;;;;6.88;2.13;;;15.30;99.90;;;;;;5044004;28;20288;-76
2022/10/24 04:28:01;;;;;;;9.63;2.53;;;15.30;99.90;;;;;;5022667;28;20040;-76
2022/10/24 04:30:28;;;;;;;7.20;2.40;;;15.30;99.90;;;;;;5021436;28;20428;-77
2022/10/24 04:32:55;;;;;;;8.02;2.35;;;15.30;99.90;;;;;;5035713;28;20511;-76
2022/10/24 04:35:21;;;;;;;6.03;2.22;;;15.30;99.90;;;;;;5027385;28;20048;-76
2022/10/24 04:37:47;;;;;;;8.13;2.47;;;15.30;99.90;;;;;;5043368;28;20095;-76
2022/10/24 04:40:12;;;;;;;5.43;2.10;;;15.30;99.90;;;;;;5045285;28;20033;-76
2022/10/24 04:42:38;;;;;;;8.05;2.60;;;15.30;99.90;;;;;;5042236;28;20399;-77
2022/10/24 04:45:05;;;;;;;7.50;2.25;;;15.20;99.90;;;;;;5039853;28;20448;-76
2022/10/24 04:47:30;;;;;;;8.30;2.47;;;15.20;99.90;;;;;;5021914;28;20469;-76
2022/10/24 04:49:56;;;;;;;6.70;2.10;;;15.20;99.90;;;;;;5046160;28;20052;-76
2022/10/24 04:52:21;;;;;;;10.25;2.42;;;15.20;99.90;;;;;;5020043;28;20037;-77
2022/10/24 04:54:47;;;;;;;6.53;1.98;;;15.20;99.90;;;;;;5026852;28;20393;-78
2022/10/24 04:57:13;;;;;;;6.65;2.20;;;15.10;99.90;;;;;;5049096;28;20055;-78
2022/10/24 04:59:38;;;;;;;11.15;2.40;;;15.10;99.90;;;;;;5049112;28;20080;-77
2022/10/24 05:02:04;;;;;;;6.20;2.22;;;15.10;99.90;;;;;;5044831;28;20032;-76
2022/10/24 05:04:30;;;;;;;5.07;2.20;;;15.20;99.90;;;;;;5044729;28;20920;-79
2022/10/24 05:06:55;;;;;;;7.53;2.50;;;15.20;99.90;;;;;;5047811;28;20049;-76
2022/10/24 05:09:21;;;;;;;5.40;1.95;;;15.10;99.90;;;;;;5048400;28;20045;-77
2022/10/24 05:11:47;;;;;;;7.28;2.30;;;15.10;99.90;;;;;;5029515;28;20051;-77
2022/10/24 05:14:13;;;;;;;7.65;2.10;;;15.10;99.90;;;;;;5048996;28;20553;-76
2022/10/24 05:16:39;;;;;;;7.95;2.45;;;15.10;99.90;;;;;;5065432;28;20461;-76
2022/10/24 05:19:05;;;;;;;10.05;2.70;;;15.10;99.90;;;;;;5051613;28;20075;-77
2022/10/24 05:21:32;;;;;;;8.07;2.30;;;15.10;99.90;;;;;;5065079;28;20047;-77
2022/10/24 05:23:58;;;;;;;8.40;2.42;;;15.10;99.90;;;;;;5070793;28;20057;-78
2022/10/24 05:26:23;;;;;;;5.57;2.13;;;15.10;99.90;;;;;;5047673;28;20048;-77
2022/10/24 05:28:49;;;;;;;6.95;2.10;;;15.10;99.90;;;;;;5068207;28;20496;-76
2022/10/24 05:31:15;;;;;;;8.80;2.20;;;15.10;99.90;;;;;;5065347;28;20097;-75
2022/10/24 05:33:40;;;;;;;6.63;2.00;;;15.10;99.90;;;;;;5049309;28;20040;-78
2022/10/24 05:36:07;;;;;;;5.10;2.10;;;15.00;99.90;;;;;;5066744;28;20046;-76
2022/10/24 05:38:32;;;;;;;9.18;2.25;;;15.00;99.90;;;;;;5045591;28;20083;-78
2022/10/24 05:40:58;;;;;;;8.18;2.50;;;15.00;99.90;;;;;;5070489;28;20076;-78
2022/10/24 05:43:23;;;;;;;7.28;2.20;;;15.00;99.90;;;;;;5054290;28;20044;-78
2022/10/24 05:45:49;;;;;;;6.75;2.17;;;15.00;99.90;;;;;;5045896;28;20055;-77
2022/10/24 05:48:15;;;;;;;9.00;2.28;;;15.00;99.90;;;;;;5045757;28;20098;-76
2022/10/24 05:50:41;;;;;;;6.47;1.88;;;14.90;99.90;;;;;;5067341;28;20398;-78
2022/10/24 05:53:08;;;;;;;9.35;2.00;;;15.00;99.90;;;;;;5061305;28;20064;-78
2022/10/24 05:55:34;;;;;;;8.73;2.30;;;14.90;99.90;;;;;;5068756;28;20041;-76
2022/10/24 05:58:00;;;;;;;5.47;2.10;;;14.90;99.90;;;;;;5067912;28;20044;-78
2022/10/24 06:00:26;;;;;;;8.70;2.42;;;14.90;99.90;;;;;;5046662;28;20699;-79
2022/10/24 06:02:52;;;;;;;8.05;2.10;;;14.90;99.90;;;;;;5060838;28;20471;-78
2022/10/24 06:05:18;;;;;;;9.43;2.58;;;14.90;99.90;;;;;;5062544;28;20040;-80
2022/10/24 06:07:44;;;;;;;6.50;2.42;;;14.90;99.90;;;;;;5056124;28;20044;-79
2022/10/24 06:10:10;;;;;;;9.68;2.42;;;14.90;99.90;;;;;;5044454;28;20498;-77
2022/10/24 06:12:37;;;;;;;6.78;1.90;;;14.90;99.90;;;;;;5061930;28;20128;-78
2022/10/24 06:15:05;;;;;;;5.83;2.17;;;15.00;99.90;;;;;;5044093;28;20052;-79
2022/10/24 06:17:31;;;;;;;10.13;2.28;;;15.00;99.90;;;;;;5063191;28;20295;-75
2022/10/24 06:19:56;;;;;;;7.47;2.38;;;15.00;99.90;;;;;;5044677;28;20441;-76
2022/10/24 06:22:26;;;;;;;6.78;2.10;;;15.00;99.90;;;;;;5060527;28;20055;-76
2022/10/24 06:24:55;;;;;;;6.43;2.13;;;14.90;99.90;;;;;;5047936;28;20148;-76
2022/10/24 06:27:22;;;;;;;9.45;2.25;;;15.00;99.90;;;;;;5045933;28;20071;-76
2022/10/24 06:29:47;;;;;;;7.57;2.65;;;15.00;99.90;;;;;;5063475;28;20052;-75
2022/10/24 06:32:13;;;;;;;8.32;2.40;;;15.00;99.90;;;;;;5040678;28;20037;-75
2022/10/24 06:34:39;;;;;;;11.27;2.53;;;15.00;99.90;;;;;;5045903;28;20058;-76
2022/10/24 06:37:05;;;;;;;8.02;2.20;;;15.00;99.90;;;;;;5062042;28;20072;-75
2022/10/24 06:39:33;;;;;;;6.65;1.88;;;15.00;99.90;;;;;;5066414;28;21610;-75
2022/10/24 06:42:00;;;;;;;9.27;2.13;;;15.00;99.90;;;;;;5046736;28;20783;-75
2022/10/24 06:44:26;;;;;;;5.20;1.75;;;15.10;99.90;;;;;;5067270;28;20143;-75
2022/10/24 06:46:52;;;;;;;11.55;2.03;;;15.10;99.90;;;;;;5064630;28;20072;-75
2022/10/24 06:49:22;;;;;;;5.35;2.00;;;15.10;99.90;;;;;;5040098;28;20127;-76
2022/10/24 06:51:47;;;;;;;7.78;2.00;;;15.10;99.90;;;;;;5064960;28;20068;-75
2022/10/24 06:54:14;;;;;;;8.48;2.13;;;15.10;99.90;;;;;;5066862;28;20070;-76
2022/10/24 06:56:39;;;;;;;5.25;2.10;;;15.10;99.90;;;;;;5056321;28;20040;-76
2022/10/24 06:59:14;;;;;;;7.82;1.90;;;15.10;99.90;;;;;;5064056;28;20044;-76
2022/10/24 07:01:41;;;;;;;6.40;2.05;;;15.10;99.90;;;;;;5044955;28;20132;-76
2022/10/24 07:04:10;;;;;;;7.13;2.00;;;15.10;99.90;;;;;;5039510;28;20036;-76
2022/10/24 07:06:36;;;;;;;7.10;2.00;;;15.20;99.90;;;;;;5057509;28;20048;-75
2022/10/24 07:09:03;;;;;;;7.40;2.22;;;15.20;99.90;;;;;;5062507;28;20395;-76
2022/10/24 07:11:31;;;;;;;4.10;1.77;;;15.20;99.90;;;;;;5061979;28;20483;-75
2022/10/24 07:13:56;;;;;;;;;;;15.20;99.90;;;;;;5063568;28;20868;-76
2022/10/24 07:16:22;;;;;;;7.45;1.52;;;15.20;99.90;;;;;;5062684;28;20037;-76
2022/10/24 07:18:48;;;;;;;8.45;2.00;;;15.20;99.90;;;;;;5061460;28;20253;-78
2022/10/24 07:21:18;;;;;;;5.55;1.77;;;15.20;99.90;;;;;;5046595;28;20036;-79
2022/10/24 07:23:44;;;;;;;8.80;2.05;;;15.30;99.90;;;;;;5058454;28;20436;-84
2022/10/24 07:26:13;;;;;;;7.80;1.80;;;15.30;99.90;;;;;;5063166;28;20749;-78
2022/10/24 07:28:40;;;;;;;9.95;2.05;;;15.30;99.90;;;;;;5065264;28;20094;-80
2022/10/24 07:31:07;;;;;;;6.25;1.88;;;15.30;99.90;;;;;;5061969;28;20089;-79
2022/10/24 07:33:33;;;;;;;10.95;2.00;;;15.40;99.90;;;;;;5054127;28;20102;-80
2022/10/24 07:35:59;;;;;;;9.45;2.17;;;15.40;99.90;;;;;;5047212;28;20088;-84
2022/10/24 07:38:25;;;;;;;7.10;1.90;;;15.50;99.90;;;;;;5066365;28;20058;-81
2022/10/24 07:40:50;;;;;;;9.10;2.10;;;15.50;99.90;;;;;;5065876;28;20128;-83
2022/10/24 07:43:16;;;;;;;7.32;2.10;;;15.60;99.90;;;;;;5066474;28;20040;-82
2022/10/24 07:45:42;;;;;;;11.45;2.50;;;15.60;99.90;;;;;;5064218;28;21662;-79
2022/10/24 07:48:11;;;;;;;7.95;1.90;;;15.60;99.90;;;;;;5064335;28;20033;-77
2022/10/24 07:50:45;;;;;;;4.93;1.70;;;15.60;99.90;;;;;;5062748;28;20059;-75
2022/10/24 07:53:12;;;;;;;8.52;1.88;;;15.70;99.90;;;;;;5064476;28;20045;-76
2022/10/24 07:55:39;;;;;;;6.85;1.48;;;15.70;99.90;;;;;;5048631;28;20089;-76
2022/10/24 07:58:05;;;;;;;6.90;1.60;;;15.80;99.90;;;;;;5068544;28;20044;-77
2022/10/24 08:00:31;;;;;;;8.05;1.70;;;15.80;99.90;;;;;;5067941;28;20127;-79
2022/10/24 08:02:57;;;;;;;10.15;2.00;;;15.80;99.90;;;;;;5047976;28;20190;-81
2022/10/24 08:05:23;;;;;;;6.65;1.85;;;15.80;99.90;;;;;;5066769;28;20044;-81
2022/10/24 08:07:49;;;;;;;7.55;1.80;;;15.80;99.90;;;;;;5062636;28;20036;-79
2022/10/24 08:10:15;;;;;;;6.00;1.70;;;15.80;99.90;;;;;;5060329;28;20037;-79
2022/10/24 08:12:41;;;;;;;9.77;1.88;;;15.80;99.90;;;;;;5058627;28;20049;-78
2022/10/24 08:15:08;;;;;;;8.30;1.80;;;15.80;99.90;;;;;;5063432;28;20125;-83
2022/10/24 08:17:35;;;;;;;9.67;2.40;;;15.90;99.90;;;;;;5066500;28;20044;-77
2022/10/24 08:20:03;;;;;;;;;;;15.90;99.90;;;;;;5066929;28;20302;-84
2022/10/24 08:22:29;;;;;;;8.25;1.83;;;15.90;99.90;;;;;;5066482;28;19924;-82
2022/10/24 08:24:54;;;;;;;10.55;2.28;;;15.90;99.90;;;;;;5043686;28;20063;-83
2022/10/24 08:27:20;;;;;;;9.15;2.00;;;15.90;99.90;;;;;;5063991;28;20093;-83
2022/10/24 08:29:46;;;;;;;8.00;1.60;;;16.00;99.90;;;;;;5062962;28;20047;-81
2022/10/24 08:32:11;;;;;;;12.52;2.22;;;16.00;99.90;;;;;;5064330;28;20048;-81
2022/10/24 08:34:37;;;;;;;8.73;1.90;;;16.00;99.90;;;;;;5061569;28;20040;-78
2022/10/24 08:37:03;;;;;;;12.52;2.10;;;16.10;99.90;;;;;;5046677;28;20045;-77
2022/10/24 08:39:28;;;;;;;8.00;1.65;;;16.10;99.90;;;;;;5048886;28;20085;-77
2022/10/24 08:41:57;;;;;;;9.82;2.00;;;16.10;99.90;;;;;;5067195;28;20051;-78
2022/10/24 08:44:29;;;;;;;9.60;2.10;;;16.20;99.90;;;;;;5048850;28;20056;-78
2022/10/24 08:47:22;;;;;;;8.55;2.38;;;16.20;99.90;;;;;;5067331;28;20044;-78
2022/10/24 08:49:50;;;;;;;11.95;2.08;;;16.30;99.90;;;;;;5047508;28;20045;-77
2022/10/24 08:52:42;;;;;;;8.18;2.22;;;16.30;99.90;;;;;;5047532;28;20048;-78
2022/10/24 08:55:18;;;;;;;9.65;2.05;;;16.30;99.90;;;;;;5058277;28;20052;-75
2022/10/24 08:57:49;;;;;;;10.45;2.22;;;16.40;99.90;;;;;;5055998;28;20037;-74
2022/10/24 09:00:19;;;;;;;9.95;2.33;;;16.40;99.90;;;;;;5067467;28;20060;-78
2022/10/24 09:03:07;;;;;;;10.57;2.30;;;16.40;99.90;;;;;;5063048;28;20037;-81
2022/10/24 09:05:41;;;;;;;12.73;2.65;;;16.40;99.90;;;;;;5063033;28;20238;-81
2022/10/24 09:08:29;;;;;;;12.35;2.05;;;16.40;99.90;;;;;;5065254;28;20096;-81
2022/10/24 09:11:04;;;;;;;10.85;2.53;;;16.40;99.90;;;;;;5066098;28;20615;-79
2022/10/24 09:13:32;;;;;;;7.95;2.28;;;16.50;99.90;;;;;;5066141;28;20055;-80
2022/10/24 09:15:58;;;;;;;11.77;1.90;;;16.50;99.90;;;;;;5066401;28;20045;-83
2022/10/24 09:18:33;;;;;;;13.18;2.78;;;16.50;99.90;;;;;;5063870;28;20040;-79
2022/10/24 09:21:00;;;;;;;11.23;2.22;;;16.60;99.90;;;;;;5048785;28;20115;-80
2022/10/24 09:23:26;;;;;;;12.10;2.38;;;16.60;99.90;;;;;;5048725;28;20052;-81
2022/10/24 09:25:55;;;;;;;11.85;1.98;;;16.60;99.90;;;;;;5060723;28;20097;-82
2022/10/24 09:28:21;;;;;;;12.00;2.58;;;16.60;99.90;;;;;;5057461;28;20065;-83
2022/10/24 09:30:47;;;;;;;9.65;2.13;;;16.60;99.90;;;;;;5062567;28;20098;-81
2022/10/24 09:33:34;;;;;;;8.83;2.00;;;16.60;99.90;;;;;;5057902;28;20037;-79
2022/10/24 09:36:01;;;;;;;;;;;16.60;99.90;;;;;;5067248;28;20051;-81
2022/10/24 09:38:33;;;;;;;7.72;2.15;;;16.60;99.90;;;;;;5066387;28;20039;-83
2022/10/24 09:41:02;;;;;;;9.07;1.95;;;16.60;99.90;;;;;;5070156;28;20123;-84
2022/10/24 09:43:42;;;;;;;9.05;1.85;;;16.60;99.90;;;;;;5068192;28;20041;-84
2022/10/24 09:46:12;;;;;;;10.60;2.17;;;16.70;99.90;;;;;;5076657;28;20436;-86
2022/10/24 09:48:56;;;;;;;10.40;2.13;;;16.70;99.90;;;;;;5052669;28;20040;-87
2022/10/24 09:51:27;;;;;;;9.07;2.05;;;16.80;99.90;;;;;;5067491;28;20040;-85
2022/10/24 09:54:24;;;;;;;8.55;2.00;;;16.80;99.90;;;;;;5063779;28;20040;-85
2022/10/24 09:57:04;;;;;;;8.13;2.17;;;16.90;99.90;;;;;;5064926;28;20056;-85
2022/10/24 09:59:56;;;;;;;9.10;1.77;;;16.90;99.90;;;;;;5071398;28;20043;-85
2022/10/24 10:02:35;;;;;;;8.43;2.10;;;16.90;99.90;;;;;;5049085;28;20047;-86
2022/10/24 10:05:03;;;;;;;10.82;2.25;;;16.90;99.90;;;;;;5063404;28;20055;-86
2022/10/24 10:07:36;;;;;;;8.30;2.05;;;16.90;99.90;;;;;;5066298;28;20040;-82
2022/10/24 10:10:20;;;;;;;9.10;1.63;;;16.90;99.90;;;;;;5047697;28;20073;-82
2022/10/24 10:13:00;;;;;;;8.85;2.20;;;16.90;99.90;;;;;;5069446;28;20044;-82
2022/10/24 10:15:34;;;;;;;7.85;1.80;;;16.90;99.90;;;;;;5065945;28;20109;-77
2022/10/24 10:18:22;;;;;;;6.85;1.77;;;16.90;99.90;;;;;;5050348;28;20063;-78
2022/10/24 10:21:03;;;;;;;8.80;2.00;;;16.80;99.90;;;;;;5065293;28;20582;-80
2022/10/24 10:23:35;;;;;;;7.95;1.85;;;16.80;99.90;;;;;;5045178;28;20152;-82
2022/10/24 10:26:03;;;;;;;8.82;1.95;;;16.80;99.90;;;;;;5068159;28;20041;-79
2022/10/24 10:28:32;;;;;;;8.38;1.70;;;16.80;99.90;;;;;;5067924;28;20048;-83
2022/10/24 10:30:59;;;;;;;12.05;2.00;;;16.80;99.90;;;;;;5066862;28;20041;-76
2022/10/24 10:33:50;;;;;;;9.07;1.63;;;16.80;99.90;;;;;;5067735;28;20807;-78
2022/10/24 10:36:21;;;;;;;8.43;1.33;;;16.70;99.90;;;;;;5043650;28;20052;-76
2022/10/24 10:39:05;;;;;;;9.18;1.70;;;16.70;99.90;;;;;;5042787;28;21662;-76
2022/10/24 10:42:13;;;;;;;7.43;1.75;;;16.70;99.90;;;;;;5049395;28;20377;-82
2022/10/24 10:45:00;;;;;;;9.23;1.50;;;16.70;99.90;;;;;;4948221;28;20043;-77
2022/10/24 10:47:34;;;;;;;;;;;16.60;99.90;;;;;;5056923;28;20044;-79
2022/10/24 10:50:01;;;;;;;6.18;1.60;;;16.60;99.90;;;;;;5062036;28;20449;-78
2022/10/24 10:52:51;;;;;;;8.32;1.98;;;16.60;99.90;;;;;;5050491;28;20047;-80
2022/10/24 10:55:33;;;;;;;10.00;1.70;;;16.60;99.90;;;;;;5047495;28;20069;-83
2022/10/24 10:58:32;;;;;;;6.78;1.60;;;16.60;99.90;;;;;;5068248;28;20040;-82
2022/10/24 11:01:13;;;;;;;7.93;1.65;;;16.60;99.90;;;;;;5048689;28;20387;-84
2022/10/24 11:03:41;;;;;;;4.93;1.40;;;16.60;99.90;;;;;;5049122;28;20044;-83
2022/10/24 11:06:14;;;;;;;5.30;1.35;;;16.60;99.90;;;;;;5059019;28;20402;-83
2022/10/24 11:09:13;;;;;;;8.73;1.65;;;16.60;99.90;;;;;;5048847;28;20404;-83
2022/10/24 11:11:47;;;;;;;5.93;1.58;;;16.60;99.90;;;;;;5039267;28;20047;-83
2022/10/24 11:14:28;;;;;;;7.07;1.60;;;16.60;99.90;;;;;;5068515;28;20368;-83
2022/10/24 11:17:00;;;;;;;7.25;1.50;;;16.60;99.90;;;;;;5048078;28;20067;-83
2022/10/24 11:19:57;;;;;;;8.18;1.60;;;16.70;99.90;;;;;;5051329;28;20048;-83
2022/10/24 11:22:41;;;;;;;7.95;1.42;;;16.70;99.90;;;;;;5049827;28;20049;-83
2022/10/24 11:25:25;;;;;;;6.93;2.00;;;16.60;99.90;;;;;;5047792;28;20044;-82
2022/10/24 11:28:17;;;;;;;8.70;1.50;;;16.70;99.90;;;;;;5066305;28;20086;-84
2022/10/24 11:30:50;;;;;;;6.78;1.40;;;16.80;99.90;;;;;;5048519;28;20052;-84
2022/10/24 11:33:22;;;;;;;8.38;1.45;;;16.80;99.90;;;;;;5066647;28;20079;-84
2022/10/24 11:36:12;;;;;;;7.95;1.73;;;16.80;99.90;;;;;;5047222;28;20056;-84
2022/10/24 11:38:45;;;;;;;8.07;1.67;;;16.90;99.90;;;;;;5065451;28;20066;-83
2022/10/24 11:41:48;;;;;;;7.53;1.90;;;16.90;99.90;;;;;;5060703;28;20725;-84
2022/10/24 11:44:35;;;;;;;6.60;1.90;;;16.90;99.90;;;;;;5059599;28;20051;-84
2022/10/24 11:47:06;;;;;;;;;;;16.80;99.90;;;;;;5060907;28;20128;-84
2022/10/24 11:49:39;;;;;;;7.75;1.73;;;16.90;99.90;;;;;;5046506;28;20071;-84
2022/10/24 11:52:18;;;;;;;4.20;1.45;;;17.00;99.90;;;;;;5064799;28;20089;-84
2022/10/24 11:54:49;;;;;;;6.65;1.60;;;17.00;99.90;;;;;;5042870;28;20067;-79
2022/10/24 11:57:20;;;;;;;7.07;1.70;;;17.20;99.90;;;;;;5055378;28;20041;-79
2022/10/24 11:59:46;;;;;;;6.03;1.90;;;17.30;99.90;;;;;;5047282;28;20119;-78
2022/10/24 12:02:31;;;;;;;6.35;1.92;;;17.30;99.90;;;;;;5047397;28;20115;-78
2022/10/24 12:05:26;;;;;;;4.55;1.30;;;17.40;99.90;;;;;;5065325;28;20036;-78
2022/10/24 12:08:29;;;;;;;6.60;1.55;;;17.50;99.90;;;;;;5064321;28;20048;-78
2022/10/24 12:11:29;;;;;;;4.90;1.67;;;17.40;99.90;;;;;;5057174;28;20055;-76
2022/10/24 12:14:20;;;;;;;5.40;1.45;;;17.40;99.90;;;;;;5056475;28;20539;-78
2022/10/24 12:17:30;;;;;;;6.18;1.40;;;17.40;99.90;;;;;;5061255;28;20091;-78
2022/10/24 12:19:58;;;;;;;7.18;1.65;;;17.40;99.90;;;;;;5060797;28;20052;-74
2022/10/24 12:22:32;;;;;;;10.30;1.80;;;17.40;99.90;;;;;;5063224;28;20395;-77
2022/10/24 12:25:06;;;;;;;6.78;1.52;;;17.40;99.90;;;;;;5063444;28;20033;-75
2022/10/24 12:27:40;;;;;;;8.27;1.52;;;17.40;99.90;;;;;;5044684;28;20087;-76
2022/10/24 12:30:08;;;;;;;6.60;1.55;;;17.40;99.90;;;;;;5061534;28;20036;-76
2022/10/24 12:32:38;;;;;;;3.28;1.08;;;17.30;99.90;;;;;;5064333;28;20054;-76
2022/10/24 12:35:29;;;;;;;6.00;1.02;;;17.30;99.90;;;;;;5047273;28;20141;-77
2022/10/24 12:37:55;;;;;;;5.78;1.48;;;17.30;99.90;;;;;;5061524;28;20246;-75
2022/10/24 12:41:04;;;;;;;4.33;1.27;;;17.30;99.90;;;;;;5045749;28;20094;-75
2022/10/24 12:43:34;;;;;;;4.97;1.30;;;17.30;99.90;;;;;;5060612;28;20628;-75
2022/10/24 12:46:26;;;;;;;7.65;1.40;;;17.20;99.90;;;;;;5065015;28;20068;-78
2022/10/24 12:48:57;;;;;;;5.80;1.35;;;17.30;99.90;;;;;;5045671;28;20063;-80
2022/10/24 12:51:37;;;;;;;5.90;1.10;;;17.30;99.90;;;;;;5046615;28;20102;-81
2022/10/24 12:54:12;;;;;;;5.72;1.48;;;17.20;99.90;;;;;;5046646;28;20518;-80
2022/10/24 12:56:50;;;;;;;6.13;1.50;;;17.30;99.90;;;;;;5060363;28;20059;-75
2022/10/24 12:59:32;;;;;;;4.70;1.73;;;17.20;99.90;;;;;;5064332;28;20045;-77
2022/10/24 13:02:19;;;;;;;8.38;1.30;;;17.30;99.90;;;;;;5063839;28;20109;-78
2022/10/24 13:05:06;;;;;;;11.68;1.80;;;17.30;99.90;;;;;;5061528;28;20080;-78
2022/10/24 13:08:06;;;;;;;5.68;1.30;;;17.20;99.90;;;;;;5065779;28;20056;-77
2022/10/24 13:10:57;;;;;;;4.25;1.20;;;17.30;99.90;;;;;;5064795;28;20139;-76